sensor_id;sensor_type;location;lat;lon;timestamp;P1;durP1;ratioP1;P2;durP2;ratioP2
3815;SDS011;1923;48.154;11.536;2023-08-31T00:02:19;2.10;;;1.60;;
3815;SDS011;1923;48.154;11.536;2023-08-31T00:04:47;2.70;;;1.90;;
3815;SDS011;1923;48.154;11.536;2023-08-31T00:07:18;2.47;;;1.83;;
3815;SDS011;1923;48.154;11.536;2023-08-31T00:09:46;2.83;;;1.97;;
3815;SDS011;1923;48.154;11.536;2023-08-31T00:12:15;2.20;;;1.80;;
3815;SDS011;1923;48.154;11.536;2023-08-31T00:14:42;2.73;;;1.80;;
3815;SDS011;1923;48.154;11.536;2023-08-31T00:17:11;4.27;;;2.27;;
3815;SDS011;1923;48.154;11.536;2023-08-31T00:19:41;2.40;;;1.90;;
3815;SDS011;1923;48.154;11.536;2023-08-31T00:22:09;2.57;;;2.00;;
3815;SDS011;1923;48.154;11.536;2023-08-31T00:24:37;2.97;;;2.40;;
3815;SDS011;1923;48.154;11.536;2023-08-31T00:27:05;3.70;;;2.43;;
3815;SDS011;1923;48.154;11.536;2023-08-31T00:29:33;3.00;;;2.30;;
3815;SDS011;1923;48.154;11.536;2023-08-31T00:32:03;1.60;;;1.50;;
3815;SDS011;1923;48.154;11.536;2023-08-31T00:34:31;3.97;;;2.50;;
3815;SDS011;1923;48.154;11.536;2023-08-31T00:37:01;2.60;;;2.30;;
3815;SDS011;1923;48.154;11.536;2023-08-31T00:39:29;2.00;;;1.73;;
3815;SDS011;1923;48.154;11.536;2023-08-31T00:41:59;4.17;;;2.37;;
3815;SDS011;1923;48.154;11.536;2023-08-31T00:44:27;2.40;;;1.73;;
3815;SDS011;1923;48.154;11.536;2023-08-31T00:46:55;3.07;;;2.10;;
3815;SDS011;1923;48.154;11.536;2023-08-31T00:49:25;2.40;;;2.00;;
3815;SDS011;1923;48.154;11.536;2023-08-31T00:51:53;2.57;;;1.80;;
3815;SDS011;1923;48.154;11.536;2023-08-31T00:54:24;3.10;;;2.27;;
3815;SDS011;1923;48.154;11.536;2023-08-31T00:56:53;2.93;;;2.30;;
3815;SDS011;1923;48.154;11.536;2023-08-31T00:59:22;3.33;;;2.20;;
3815;SDS011;1923;48.154;11.536;2023-08-31T01:01:55;2.83;;;1.87;;
3815;SDS011;1923;48.154;11.536;2023-08-31T01:04:32;2.20;;;1.93;;
3815;SDS011;1923;48.154;11.536;2023-08-31T01:07:11;2.40;;;2.10;;
3815;SDS011;1923;48.154;11.536;2023-08-31T01:09:50;3.73;;;1.90;;
3815;SDS011;1923;48.154;11.536;2023-08-31T01:12:26;2.80;;;2.13;;
3815;SDS011;1923;48.154;11.536;2023-08-31T01:15:02;2.10;;;1.90;;
3815;SDS011;1923;48.154;11.536;2023-08-31T01:17:35;3.40;;;2.40;;
3815;SDS011;1923;48.154;11.536;2023-08-31T01:20:09;3.90;;;2.33;;
3815;SDS011;1923;48.154;11.536;2023-08-31T01:22:39;2.53;;;1.90;;
3815;SDS011;1923;48.154;11.536;2023-08-31T01:25:12;2.23;;;2.03;;
3815;SDS011;1923;48.154;11.536;2023-08-31T01:27:41;4.33;;;2.40;;
3815;SDS011;1923;48.154;11.536;2023-08-31T01:30:09;2.60;;;1.87;;
3815;SDS011;1923;48.154;11.536;2023-08-31T01:32:37;3.23;;;2.23;;
3815;SDS011;1923;48.154;11.536;2023-08-31T01:35:11;2.30;;;1.97;;
3815;SDS011;1923;48.154;11.536;2023-08-31T01:37:43;4.37;;;2.67;;
3815;SDS011;1923;48.154;11.536;2023-08-31T01:40:17;3.50;;;2.47;;
3815;SDS011;1923;48.154;11.536;2023-08-31T01:42:47;3.47;;;2.33;;
3815;SDS011;1923;48.154;11.536;2023-08-31T01:45:18;4.20;;;2.07;;
3815;SDS011;1923;48.154;11.536;2023-08-31T01:47:47;2.70;;;2.40;;
3815;SDS011;1923;48.154;11.536;2023-08-31T01:50:16;3.20;;;2.27;;
3815;SDS011;1923;48.154;11.536;2023-08-31T01:52:44;3.30;;;2.47;;
3815;SDS011;1923;48.154;11.536;2023-08-31T01:55:12;2.60;;;2.30;;
3815;SDS011;1923;48.154;11.536;2023-08-31T01:57:43;3.00;;;2.17;;
3815;SDS011;1923;48.154;11.536;2023-08-31T02:00:12;2.77;;;1.70;;
3815;SDS011;1923;48.154;11.536;2023-08-31T02:02:41;3.50;;;2.00;;
3815;SDS011;1923;48.154;11.536;2023-08-31T02:05:09;4.53;;;3.17;;
3815;SDS011;1923;48.154;11.536;2023-08-31T02:07:37;2.40;;;1.90;;
3815;SDS011;1923;48.154;11.536;2023-08-31T02:10:06;2.80;;;2.00;;
3815;SDS011;1923;48.154;11.536;2023-08-31T02:12:35;2.37;;;2.13;;
3815;SDS011;1923;48.154;11.536;2023-08-31T02:15:05;2.30;;;2.07;;
3815;SDS011;1923;48.154;11.536;2023-08-31T02:17:34;2.30;;;2.00;;
3815;SDS011;1923;48.154;11.536;2023-08-31T02:20:03;2.17;;;1.90;;
3815;SDS011;1923;48.154;11.536;2023-08-31T02:22:33;2.10;;;1.77;;
3815;SDS011;1923;48.154;11.536;2023-08-31T02:25:02;3.17;;;2.40;;
3815;SDS011;1923;48.154;11.536;2023-08-31T02:27:30;2.83;;;2.50;;
3815;SDS011;1923;48.154;11.536;2023-08-31T02:29:58;2.83;;;2.20;;
3815;SDS011;1923;48.154;11.536;2023-08-31T02:32:28;2.50;;;1.97;;
3815;SDS011;1923;48.154;11.536;2023-08-31T02:34:56;3.73;;;2.30;;
3815;SDS011;1923;48.154;11.536;2023-08-31T02:37:25;5.80;;;2.27;;
3815;SDS011;1923;48.154;11.536;2023-08-31T02:39:53;5.30;;;2.50;;
3815;SDS011;1923;48.154;11.536;2023-08-31T02:42:21;5.07;;;2.70;;
3815;SDS011;1923;48.154;11.536;2023-08-31T02:44:51;3.70;;;2.57;;
3815;SDS011;1923;48.154;11.536;2023-08-31T02:47:19;3.43;;;2.83;;
3815;SDS011;1923;48.154;11.536;2023-08-31T02:49:49;3.43;;;2.37;;
3815;SDS011;1923;48.154;11.536;2023-08-31T02:52:17;6.27;;;3.43;;
3815;SDS011;1923;48.154;11.536;2023-08-31T02:54:45;4.00;;;2.80;;
3815;SDS011;1923;48.154;11.536;2023-08-31T02:57:13;6.00;;;3.90;;
3815;SDS011;1923;48.154;11.536;2023-08-31T02:59:41;4.93;;;3.17;;
3815;SDS011;1923;48.154;11.536;2023-08-31T03:02:10;3.53;;;3.23;;
3815;SDS011;1923;48.154;11.536;2023-08-31T03:04:38;5.03;;;3.50;;
3815;SDS011;1923;48.154;11.536;2023-08-31T03:07:07;4.17;;;3.27;;
3815;SDS011;1923;48.154;11.536;2023-08-31T03:09:40;5.07;;;3.93;;
3815;SDS011;1923;48.154;11.536;2023-08-31T03:12:08;5.90;;;3.90;;
3815;SDS011;1923;48.154;11.536;2023-08-31T03:14:36;9.27;;;4.10;;
3815;SDS011;1923;48.154;11.536;2023-08-31T03:17:04;5.90;;;3.90;;
3815;SDS011;1923;48.154;11.536;2023-08-31T03:19:32;4.40;;;3.90;;
3815;SDS011;1923;48.154;11.536;2023-08-31T03:22:00;5.50;;;3.60;;
3815;SDS011;1923;48.154;11.536;2023-08-31T03:24:30;5.37;;;4.10;;
3815;SDS011;1923;48.154;11.536;2023-08-31T03:26:59;4.47;;;3.87;;
3815;SDS011;1923;48.154;11.536;2023-08-31T03:29:27;6.37;;;3.97;;
3815;SDS011;1923;48.154;11.536;2023-08-31T03:31:59;6.53;;;4.13;;
3815;SDS011;1923;48.154;11.536;2023-08-31T03:34:28;4.47;;;3.57;;
3815;SDS011;1923;48.154;11.536;2023-08-31T03:36:57;9.20;;;4.03;;
3815;SDS011;1923;48.154;11.536;2023-08-31T03:39:26;4.20;;;3.50;;
3815;SDS011;1923;48.154;11.536;2023-08-31T03:41:55;17.13;;;5.60;;
3815;SDS011;1923;48.154;11.536;2023-08-31T03:44:23;5.37;;;3.63;;
3815;SDS011;1923;48.154;11.536;2023-08-31T03:46:51;4.90;;;3.27;;
3815;SDS011;1923;48.154;11.536;2023-08-31T03:49:19;7.63;;;4.10;;
3815;SDS011;1923;48.154;11.536;2023-08-31T03:51:47;4.93;;;3.30;;
3815;SDS011;1923;48.154;11.536;2023-08-31T03:54:15;4.53;;;3.07;;
3815;SDS011;1923;48.154;11.536;2023-08-31T03:56:43;4.40;;;3.23;;
3815;SDS011;1923;48.154;11.536;2023-08-31T03:59:13;3.93;;;2.23;;
3815;SDS011;1923;48.154;11.536;2023-08-31T04:01:41;4.57;;;3.40;;
3815;SDS011;1923;48.154;11.536;2023-08-31T04:04:09;3.83;;;2.87;;
3815;SDS011;1923;48.154;11.536;2023-08-31T04:06:37;5.43;;;2.97;;
3815;SDS011;1923;48.154;11.536;2023-08-31T04:09:05;4.43;;;3.00;;
3815;SDS011;1923;48.154;11.536;2023-08-31T04:11:33;4.10;;;3.40;;
3815;SDS011;1923;48.154;11.536;2023-08-31T04:14:01;4.70;;;3.60;;
3815;SDS011;1923;48.154;11.536;2023-08-31T04:16:31;5.80;;;3.37;;
3815;SDS011;1923;48.154;11.536;2023-08-31T04:18:59;3.87;;;2.40;;
3815;SDS011;1923;48.154;11.536;2023-08-31T04:21:27;3.30;;;3.00;;
3815;SDS011;1923;48.154;11.536;2023-08-31T04:23:55;5.70;;;3.47;;
3815;SDS011;1923;48.154;11.536;2023-08-31T04:26:26;3.43;;;2.97;;
3815;SDS011;1923;48.154;11.536;2023-08-31T04:28:54;5.40;;;4.37;;
3815;SDS011;1923;48.154;11.536;2023-08-31T04:31:22;4.07;;;3.57;;
3815;SDS011;1923;48.154;11.536;2023-08-31T04:33:52;5.50;;;3.60;;
3815;SDS011;1923;48.154;11.536;2023-08-31T04:36:20;3.80;;;2.90;;
3815;SDS011;1923;48.154;11.536;2023-08-31T04:38:48;6.37;;;4.27;;
3815;SDS011;1923;48.154;11.536;2023-08-31T04:41:17;6.73;;;3.23;;
3815;SDS011;1923;48.154;11.536;2023-08-31T04:43:45;23.30;;;10.20;;
3815;SDS011;1923;48.154;11.536;2023-08-31T04:46:14;10.00;;;4.97;;
3815;SDS011;1923;48.154;11.536;2023-08-31T04:48:43;18.87;;;6.27;;
3815;SDS011;1923;48.154;11.536;2023-08-31T04:54:04;4.50;;;3.47;;
3815;SDS011;1923;48.154;11.536;2023-08-31T04:56:33;4.40;;;3.33;;
3815;SDS011;1923;48.154;11.536;2023-08-31T04:59:01;5.67;;;3.07;;
3815;SDS011;1923;48.154;11.536;2023-08-31T05:01:30;4.83;;;3.17;;
3815;SDS011;1923;48.154;11.536;2023-08-31T05:03:58;6.13;;;3.70;;
3815;SDS011;1923;48.154;11.536;2023-08-31T05:06:26;6.50;;;4.07;;
3815;SDS011;1923;48.154;11.536;2023-08-31T05:08:55;8.00;;;3.80;;
3815;SDS011;1923;48.154;11.536;2023-08-31T05:11:24;7.90;;;4.00;;
3815;SDS011;1923;48.154;11.536;2023-08-31T05:13:52;12.73;;;4.30;;
3815;SDS011;1923;48.154;11.536;2023-08-31T05:16:20;7.07;;;3.67;;
3815;SDS011;1923;48.154;11.536;2023-08-31T05:18:49;8.97;;;4.27;;
3815;SDS011;1923;48.154;11.536;2023-08-31T05:21:17;6.13;;;4.23;;
3815;SDS011;1923;48.154;11.536;2023-08-31T05:23:45;5.50;;;3.50;;
3815;SDS011;1923;48.154;11.536;2023-08-31T05:26:13;5.40;;;3.67;;
3815;SDS011;1923;48.154;11.536;2023-08-31T05:28:43;5.80;;;3.60;;
3815;SDS011;1923;48.154;11.536;2023-08-31T05:31:11;9.53;;;3.90;;
3815;SDS011;1923;48.154;11.536;2023-08-31T05:33:39;4.27;;;3.47;;
3815;SDS011;1923;48.154;11.536;2023-08-31T05:36:07;5.90;;;3.73;;
3815;SDS011;1923;48.154;11.536;2023-08-31T05:38:35;6.33;;;3.70;;
3815;SDS011;1923;48.154;11.536;2023-08-31T05:41:04;6.30;;;3.53;;
3815;SDS011;1923;48.154;11.536;2023-08-31T05:43:36;5.23;;;3.70;;
3815;SDS011;1923;48.154;11.536;2023-08-31T05:46:08;3.73;;;2.93;;
3815;SDS011;1923;48.154;11.536;2023-08-31T05:48:36;8.03;;;4.33;;
3815;SDS011;1923;48.154;11.536;2023-08-31T05:51:04;3.77;;;2.73;;
3815;SDS011;1923;48.154;11.536;2023-08-31T05:53:32;6.33;;;3.40;;
3815;SDS011;1923;48.154;11.536;2023-08-31T05:56:01;3.80;;;2.93;;
3815;SDS011;1923;48.154;11.536;2023-08-31T05:58:31;4.03;;;3.43;;
3815;SDS011;1923;48.154;11.536;2023-08-31T06:01:00;5.73;;;3.80;;
3815;SDS011;1923;48.154;11.536;2023-08-31T06:03:30;5.30;;;3.73;;
3815;SDS011;1923;48.154;11.536;2023-08-31T06:05:59;5.23;;;3.00;;
3815;SDS011;1923;48.154;11.536;2023-08-31T06:08:28;4.30;;;3.00;;
3815;SDS011;1923;48.154;11.536;2023-08-31T06:10:56;4.07;;;3.00;;
3815;SDS011;1923;48.154;11.536;2023-08-31T06:13:24;4.23;;;3.07;;
3815;SDS011;1923;48.154;11.536;2023-08-31T06:15:54;4.90;;;3.13;;
3815;SDS011;1923;48.154;11.536;2023-08-31T06:18:24;4.40;;;3.10;;
3815;SDS011;1923;48.154;11.536;2023-08-31T06:20:53;4.57;;;3.03;;
3815;SDS011;1923;48.154;11.536;2023-08-31T06:23:22;5.60;;;3.10;;
3815;SDS011;1923;48.154;11.536;2023-08-31T06:25:50;8.17;;;3.23;;
3815;SDS011;1923;48.154;11.536;2023-08-31T06:28:18;7.23;;;3.13;;
3815;SDS011;1923;48.154;11.536;2023-08-31T06:30:46;5.53;;;3.40;;
3815;SDS011;1923;48.154;11.536;2023-08-31T06:33:14;7.33;;;3.33;;
3815;SDS011;1923;48.154;11.536;2023-08-31T06:35:45;5.17;;;2.63;;
3815;SDS011;1923;48.154;11.536;2023-08-31T06:38:16;4.53;;;3.23;;
3815;SDS011;1923;48.154;11.536;2023-08-31T06:40:44;6.60;;;3.20;;
3815;SDS011;1923;48.154;11.536;2023-08-31T06:43:12;4.10;;;2.93;;
3815;SDS011;1923;48.154;11.536;2023-08-31T06:45:40;5.50;;;3.67;;
3815;SDS011;1923;48.154;11.536;2023-08-31T06:48:09;5.33;;;3.60;;
3815;SDS011;1923;48.154;11.536;2023-08-31T06:50:40;5.23;;;3.00;;
3815;SDS011;1923;48.154;11.536;2023-08-31T06:53:08;5.50;;;3.17;;
3815;SDS011;1923;48.154;11.536;2023-08-31T06:55:38;5.10;;;2.67;;
3815;SDS011;1923;48.154;11.536;2023-08-31T06:58:06;5.53;;;3.37;;
3815;SDS011;1923;48.154;11.536;2023-08-31T07:00:34;4.70;;;3.07;;
3815;SDS011;1923;48.154;11.536;2023-08-31T07:03:02;4.17;;;2.90;;
3815;SDS011;1923;48.154;11.536;2023-08-31T07:05:33;3.53;;;2.07;;
3815;SDS011;1923;48.154;11.536;2023-08-31T07:08:03;4.13;;;2.87;;
3815;SDS011;1923;48.154;11.536;2023-08-31T07:10:31;4.50;;;2.50;;
3815;SDS011;1923;48.154;11.536;2023-08-31T07:13:00;5.13;;;2.57;;
3815;SDS011;1923;48.154;11.536;2023-08-31T07:15:29;4.00;;;2.80;;
3815;SDS011;1923;48.154;11.536;2023-08-31T07:17:59;3.60;;;3.03;;
3815;SDS011;1923;48.154;11.536;2023-08-31T07:20:27;3.57;;;2.40;;
3815;SDS011;1923;48.154;11.536;2023-08-31T07:22:55;3.73;;;2.70;;
3815;SDS011;1923;48.154;11.536;2023-08-31T07:25:23;3.63;;;2.80;;
3815;SDS011;1923;48.154;11.536;2023-08-31T07:27:51;6.10;;;2.07;;
3815;SDS011;1923;48.154;11.536;2023-08-31T07:30:21;4.13;;;2.33;;
3815;SDS011;1923;48.154;11.536;2023-08-31T07:32:49;3.57;;;2.60;;
3815;SDS011;1923;48.154;11.536;2023-08-31T07:35:17;3.77;;;2.10;;
3815;SDS011;1923;48.154;11.536;2023-08-31T07:37:45;3.90;;;2.77;;
3815;SDS011;1923;48.154;11.536;2023-08-31T07:40:13;3.80;;;2.47;;
3815;SDS011;1923;48.154;11.536;2023-08-31T07:42:41;3.27;;;2.13;;
3815;SDS011;1923;48.154;11.536;2023-08-31T07:45:09;7.03;;;2.00;;
3815;SDS011;1923;48.154;11.536;2023-08-31T07:47:39;4.10;;;1.87;;
3815;SDS011;1923;48.154;11.536;2023-08-31T07:50:07;4.60;;;2.10;;
3815;SDS011;1923;48.154;11.536;2023-08-31T07:52:36;3.00;;;2.40;;
3815;SDS011;1923;48.154;11.536;2023-08-31T07:55:05;5.70;;;2.33;;
3815;SDS011;1923;48.154;11.536;2023-08-31T07:57:34;4.37;;;2.40;;
3815;SDS011;1923;48.154;11.536;2023-08-31T08:00:04;5.37;;;2.63;;
3815;SDS011;1923;48.154;11.536;2023-08-31T08:02:33;3.90;;;2.30;;
3815;SDS011;1923;48.154;11.536;2023-08-31T08:05:02;4.53;;;2.33;;
3815;SDS011;1923;48.154;11.536;2023-08-31T08:07:31;2.60;;;2.00;;
3815;SDS011;1923;48.154;11.536;2023-08-31T08:09:59;3.50;;;2.57;;
3815;SDS011;1923;48.154;11.536;2023-08-31T08:12:27;4.47;;;1.70;;
3815;SDS011;1923;48.154;11.536;2023-08-31T08:14:55;3.47;;;1.80;;
3815;SDS011;1923;48.154;11.536;2023-08-31T08:17:23;1.90;;;1.60;;
3815;SDS011;1923;48.154;11.536;2023-08-31T08:19:52;2.67;;;1.77;;
3815;SDS011;1923;48.154;11.536;2023-08-31T08:22:21;3.97;;;2.47;;
3815;SDS011;1923;48.154;11.536;2023-08-31T08:24:49;8.83;;;2.10;;
3815;SDS011;1923;48.154;11.536;2023-08-31T08:27:17;3.40;;;2.30;;
3815;SDS011;1923;48.154;11.536;2023-08-31T08:29:46;4.10;;;2.40;;
3815;SDS011;1923;48.154;11.536;2023-08-31T08:32:14;2.67;;;1.97;;
3815;SDS011;1923;48.154;11.536;2023-08-31T08:34:42;2.17;;;1.53;;
3815;SDS011;1923;48.154;11.536;2023-08-31T08:37:10;3.03;;;1.97;;
3815;SDS011;1923;48.154;11.536;2023-08-31T08:39:40;5.07;;;2.37;;
3815;SDS011;1923;48.154;11.536;2023-08-31T08:42:09;6.60;;;2.07;;
3815;SDS011;1923;48.154;11.536;2023-08-31T08:44:38;3.10;;;2.00;;
3815;SDS011;1923;48.154;11.536;2023-08-31T08:47:07;2.70;;;1.70;;
3815;SDS011;1923;48.154;11.536;2023-08-31T08:49:35;6.63;;;2.00;;
3815;SDS011;1923;48.154;11.536;2023-08-31T08:52:04;4.70;;;2.07;;
3815;SDS011;1923;48.154;11.536;2023-08-31T08:54:32;2.77;;;1.90;;
3815;SDS011;1923;48.154;11.536;2023-08-31T08:57:05;3.57;;;1.47;;
3815;SDS011;1923;48.154;11.536;2023-08-31T08:59:34;3.07;;;1.70;;
3815;SDS011;1923;48.154;11.536;2023-08-31T09:02:02;3.77;;;1.70;;
3815;SDS011;1923;48.154;11.536;2023-08-31T09:04:31;2.80;;;1.63;;
3815;SDS011;1923;48.154;11.536;2023-08-31T09:07:00;2.47;;;1.67;;
3815;SDS011;1923;48.154;11.536;2023-08-31T09:09:29;3.00;;;1.67;;
3815;SDS011;1923;48.154;11.536;2023-08-31T09:11:57;3.93;;;2.20;;
3815;SDS011;1923;48.154;11.536;2023-08-31T09:14:35;3.17;;;2.07;;
3815;SDS011;1923;48.154;11.536;2023-08-31T09:17:03;2.17;;;1.50;;
3815;SDS011;1923;48.154;11.536;2023-08-31T09:19:32;3.23;;;1.80;;
3815;SDS011;1923;48.154;11.536;2023-08-31T09:22:00;3.37;;;2.30;;
3815;SDS011;1923;48.154;11.536;2023-08-31T09:24:29;3.53;;;1.83;;
3815;SDS011;1923;48.154;11.536;2023-08-31T09:27:08;3.07;;;1.67;;
3815;SDS011;1923;48.154;11.536;2023-08-31T09:29:37;3.80;;;2.20;;
3815;SDS011;1923;48.154;11.536;2023-08-31T09:32:06;3.40;;;2.27;;
3815;SDS011;1923;48.154;11.536;2023-08-31T09:34:34;3.40;;;2.13;;
3815;SDS011;1923;48.154;11.536;2023-08-31T09:37:04;4.73;;;2.20;;
3815;SDS011;1923;48.154;11.536;2023-08-31T09:39:35;1.63;;;1.27;;
3815;SDS011;1923;48.154;11.536;2023-08-31T09:42:03;2.97;;;2.00;;
3815;SDS011;1923;48.154;11.536;2023-08-31T09:44:33;2.80;;;1.33;;
3815;SDS011;1923;48.154;11.536;2023-08-31T09:47:01;4.80;;;1.83;;
3815;SDS011;1923;48.154;11.536;2023-08-31T09:49:31;4.80;;;1.67;;
3815;SDS011;1923;48.154;11.536;2023-08-31T09:52:00;4.30;;;1.97;;
3815;SDS011;1923;48.154;11.536;2023-08-31T09:54:31;2.77;;;1.20;;
3815;SDS011;1923;48.154;11.536;2023-08-31T09:57:03;3.13;;;1.33;;
3815;SDS011;1923;48.154;11.536;2023-08-31T09:59:33;3.60;;;2.20;;
3815;SDS011;1923;48.154;11.536;2023-08-31T10:02:02;3.00;;;1.77;;
3815;SDS011;1923;48.154;11.536;2023-08-31T10:04:31;2.80;;;1.50;;
3815;SDS011;1923;48.154;11.536;2023-08-31T10:07:01;3.23;;;1.83;;
3815;SDS011;1923;48.154;11.536;2023-08-31T10:09:32;4.83;;;2.00;;
3815;SDS011;1923;48.154;11.536;2023-08-31T10:12:00;2.33;;;1.50;;
3815;SDS011;1923;48.154;11.536;2023-08-31T10:14:31;3.33;;;2.07;;
3815;SDS011;1923;48.154;11.536;2023-08-31T10:17:01;4.23;;;1.70;;
3815;SDS011;1923;48.154;11.536;2023-08-31T10:19:30;3.67;;;1.50;;
3815;SDS011;1923;48.154;11.536;2023-08-31T10:21:58;2.60;;;1.83;;
3815;SDS011;1923;48.154;11.536;2023-08-31T10:27:23;2.43;;;1.63;;
3815;SDS011;1923;48.154;11.536;2023-08-31T10:29:53;3.40;;;2.07;;
3815;SDS011;1923;48.154;11.536;2023-08-31T10:32:21;4.27;;;1.83;;
3815;SDS011;1923;48.154;11.536;2023-08-31T10:35:05;1.67;;;1.30;;
3815;SDS011;1923;48.154;11.536;2023-08-31T10:37:35;4.47;;;3.07;;
3815;SDS011;1923;48.154;11.536;2023-08-31T10:40:07;3.20;;;1.65;;
3815;SDS011;1923;48.154;11.536;2023-08-31T10:42:41;2.10;;;1.40;;
3815;SDS011;1923;48.154;11.536;2023-08-31T10:45:12;3.00;;;2.10;;
3815;SDS011;1923;48.154;11.536;2023-08-31T10:47:40;4.20;;;1.80;;
3815;SDS011;1923;48.154;11.536;2023-08-31T10:50:19;8.90;;;2.47;;
3815;SDS011;1923;48.154;11.536;2023-08-31T10:52:48;3.73;;;1.73;;
3815;SDS011;1923;48.154;11.536;2023-08-31T10:55:16;4.20;;;2.03;;
3815;SDS011;1923;48.154;11.536;2023-08-31T10:57:47;2.60;;;1.70;;
3815;SDS011;1923;48.154;11.536;2023-08-31T11:00:20;8.40;;;2.23;;
3815;SDS011;1923;48.154;11.536;2023-08-31T11:03:15;4.13;;;2.00;;
3815;SDS011;1923;48.154;11.536;2023-08-31T11:05:53;3.30;;;1.90;;
3815;SDS011;1923;48.154;11.536;2023-08-31T11:08:21;5.07;;;1.93;;
3815;SDS011;1923;48.154;11.536;2023-08-31T11:10:51;1.70;;;1.20;;
3815;SDS011;1923;48.154;11.536;2023-08-31T11:13:19;4.47;;;1.63;;
3815;SDS011;1923;48.154;11.536;2023-08-31T11:15:49;4.70;;;2.10;;
3815;SDS011;1923;48.154;11.536;2023-08-31T11:18:20;3.03;;;1.67;;
3815;SDS011;1923;48.154;11.536;2023-08-31T11:20:48;5.73;;;2.40;;
3815;SDS011;1923;48.154;11.536;2023-08-31T11:23:17;6.83;;;2.07;;
3815;SDS011;1923;48.154;11.536;2023-08-31T11:25:47;7.30;;;2.63;;
3815;SDS011;1923;48.154;11.536;2023-08-31T11:28:15;3.17;;;2.40;;
3815;SDS011;1923;48.154;11.536;2023-08-31T11:30:43;6.43;;;2.60;;
3815;SDS011;1923;48.154;11.536;2023-08-31T11:33:14;4.23;;;2.10;;
3815;SDS011;1923;48.154;11.536;2023-08-31T11:35:43;4.47;;;1.97;;
3815;SDS011;1923;48.154;11.536;2023-08-31T11:38:12;8.50;;;2.80;;
3815;SDS011;1923;48.154;11.536;2023-08-31T11:40:40;6.33;;;1.70;;
3815;SDS011;1923;48.154;11.536;2023-08-31T11:43:09;2.70;;;1.97;;
3815;SDS011;1923;48.154;11.536;2023-08-31T11:45:38;3.87;;;2.13;;
3815;SDS011;1923;48.154;11.536;2023-08-31T11:48:06;10.50;;;2.37;;
3815;SDS011;1923;48.154;11.536;2023-08-31T11:50:37;4.47;;;2.10;;
3815;SDS011;1923;48.154;11.536;2023-08-31T11:53:06;6.60;;;2.50;;
3815;SDS011;1923;48.154;11.536;2023-08-31T11:55:35;4.43;;;1.80;;
3815;SDS011;1923;48.154;11.536;2023-08-31T11:58:03;3.87;;;2.30;;
3815;SDS011;1923;48.154;11.536;2023-08-31T12:00:35;7.10;;;2.63;;
3815;SDS011;1923;48.154;11.536;2023-08-31T12:03:03;5.20;;;2.60;;
3815;SDS011;1923;48.154;11.536;2023-08-31T12:05:45;4.13;;;2.50;;
3815;SDS011;1923;48.154;11.536;2023-08-31T12:08:14;3.83;;;2.53;;
3815;SDS011;1923;48.154;11.536;2023-08-31T12:10:43;3.67;;;1.67;;
3815;SDS011;1923;48.154;11.536;2023-08-31T12:13:11;3.30;;;1.70;;
3815;SDS011;1923;48.154;11.536;2023-08-31T12:15:40;5.30;;;2.33;;
3815;SDS011;1923;48.154;11.536;2023-08-31T12:18:08;4.50;;;1.60;;
3815;SDS011;1923;48.154;11.536;2023-08-31T12:20:42;2.40;;;1.50;;
3815;SDS011;1923;48.154;11.536;2023-08-31T12:23:12;5.50;;;2.07;;
3815;SDS011;1923;48.154;11.536;2023-08-31T12:25:45;2.40;;;1.37;;
3815;SDS011;1923;48.154;11.536;2023-08-31T12:28:15;2.10;;;1.50;;
3815;SDS011;1923;48.154;11.536;2023-08-31T12:30:46;3.30;;;1.83;;
3815;SDS011;1923;48.154;11.536;2023-08-31T12:33:16;6.10;;;2.23;;
3815;SDS011;1923;48.154;11.536;2023-08-31T12:35:46;4.97;;;1.80;;
3815;SDS011;1923;48.154;11.536;2023-08-31T12:38:15;3.33;;;2.07;;
3815;SDS011;1923;48.154;11.536;2023-08-31T12:40:44;4.23;;;2.77;;
3815;SDS011;1923;48.154;11.536;2023-08-31T12:43:12;6.70;;;2.73;;
3815;SDS011;1923;48.154;11.536;2023-08-31T12:45:41;5.50;;;2.57;;
3815;SDS011;1923;48.154;11.536;2023-08-31T12:48:09;4.27;;;2.40;;
3815;SDS011;1923;48.154;11.536;2023-08-31T12:50:37;6.63;;;3.40;;
3815;SDS011;1923;48.154;11.536;2023-08-31T12:53:07;5.53;;;2.50;;
3815;SDS011;1923;48.154;11.536;2023-08-31T12:55:34;10.03;;;3.13;;
3815;SDS011;1923;48.154;11.536;2023-08-31T12:58:02;7.60;;;3.23;;
3815;SDS011;1923;48.154;11.536;2023-08-31T13:00:32;1.70;;;1.23;;
3815;SDS011;1923;48.154;11.536;2023-08-31T13:03:00;3.37;;;1.90;;
3815;SDS011;1923;48.154;11.536;2023-08-31T13:05:29;6.17;;;1.97;;
3815;SDS011;1923;48.154;11.536;2023-08-31T13:07:57;3.90;;;1.70;;
3815;SDS011;1923;48.154;11.536;2023-08-31T13:10:27;4.57;;;1.73;;
3815;SDS011;1923;48.154;11.536;2023-08-31T13:12:55;5.10;;;1.70;;
3815;SDS011;1923;48.154;11.536;2023-08-31T13:15:23;1.80;;;1.47;;
3815;SDS011;1923;48.154;11.536;2023-08-31T13:17:51;8.03;;;2.20;;
3815;SDS011;1923;48.154;11.536;2023-08-31T13:20:19;3.97;;;1.50;;
3815;SDS011;1923;48.154;11.536;2023-08-31T13:22:48;3.00;;;1.90;;
3815;SDS011;1923;48.154;11.536;2023-08-31T13:25:16;2.20;;;1.20;;
3815;SDS011;1923;48.154;11.536;2023-08-31T13:27:46;7.60;;;1.70;;
3815;SDS011;1923;48.154;11.536;2023-08-31T13:30:14;2.80;;;1.63;;
3815;SDS011;1923;48.154;11.536;2023-08-31T13:32:42;4.30;;;1.53;;
3815;SDS011;1923;48.154;11.536;2023-08-31T13:35:10;2.90;;;1.50;;
3815;SDS011;1923;48.154;11.536;2023-08-31T13:37:38;4.30;;;1.70;;
3815;SDS011;1923;48.154;11.536;2023-08-31T13:40:07;2.07;;;1.47;;
3815;SDS011;1923;48.154;11.536;2023-08-31T13:42:36;4.20;;;1.30;;
3815;SDS011;1923;48.154;11.536;2023-08-31T13:45:07;3.83;;;1.67;;
3815;SDS011;1923;48.154;11.536;2023-08-31T13:47:36;4.07;;;1.60;;
3815;SDS011;1923;48.154;11.536;2023-08-31T13:50:04;2.37;;;1.57;;
3815;SDS011;1923;48.154;11.536;2023-08-31T13:52:33;3.57;;;1.80;;
3815;SDS011;1923;48.154;11.536;2023-08-31T13:55:01;2.30;;;1.40;;
3815;SDS011;1923;48.154;11.536;2023-08-31T13:57:31;2.80;;;1.40;;
3815;SDS011;1923;48.154;11.536;2023-08-31T13:59:59;4.80;;;2.13;;
3815;SDS011;1923;48.154;11.536;2023-08-31T14:02:28;3.27;;;1.83;;
3815;SDS011;1923;48.154;11.536;2023-08-31T14:04:57;2.83;;;1.80;;
3815;SDS011;1923;48.154;11.536;2023-08-31T14:07:25;3.50;;;1.73;;
3815;SDS011;1923;48.154;11.536;2023-08-31T14:09:52;3.83;;;1.87;;
3815;SDS011;1923;48.154;11.536;2023-08-31T14:12:21;3.17;;;1.60;;
3815;SDS011;1923;48.154;11.536;2023-08-31T14:14:51;2.20;;;1.80;;
3815;SDS011;1923;48.154;11.536;2023-08-31T14:17:19;6.37;;;2.20;;
3815;SDS011;1923;48.154;11.536;2023-08-31T14:19:48;2.53;;;1.50;;
3815;SDS011;1923;48.154;11.536;2023-08-31T14:22:16;5.67;;;2.07;;
3815;SDS011;1923;48.154;11.536;2023-08-31T14:24:44;4.27;;;1.93;;
3815;SDS011;1923;48.154;11.536;2023-08-31T14:27:13;8.47;;;1.80;;
3815;SDS011;1923;48.154;11.536;2023-08-31T14:29:41;3.27;;;1.60;;
3815;SDS011;1923;48.154;11.536;2023-08-31T14:32:09;3.10;;;1.50;;
3815;SDS011;1923;48.154;11.536;2023-08-31T14:34:37;3.83;;;1.70;;
3815;SDS011;1923;48.154;11.536;2023-08-31T14:37:07;4.30;;;2.00;;
3815;SDS011;1923;48.154;11.536;2023-08-31T14:39:35;2.80;;;1.43;;
3815;SDS011;1923;48.154;11.536;2023-08-31T14:42:03;4.10;;;2.63;;
3815;SDS011;1923;48.154;11.536;2023-08-31T14:44:31;2.80;;;1.70;;
3815;SDS011;1923;48.154;11.536;2023-08-31T14:46:59;4.70;;;2.07;;
3815;SDS011;1923;48.154;11.536;2023-08-31T14:49:27;2.33;;;1.70;;
3815;SDS011;1923;48.154;11.536;2023-08-31T14:51:55;2.60;;;1.50;;
3815;SDS011;1923;48.154;11.536;2023-08-31T14:54:25;3.30;;;1.40;;
3815;SDS011;1923;48.154;11.536;2023-08-31T14:56:53;1.80;;;1.50;;
3815;SDS011;1923;48.154;11.536;2023-08-31T14:59:21;5.37;;;1.80;;
3815;SDS011;1923;48.154;11.536;2023-08-31T15:01:49;3.50;;;1.53;;
3815;SDS011;1923;48.154;11.536;2023-08-31T15:04:17;1.63;;;1.30;;
3815;SDS011;1923;48.154;11.536;2023-08-31T15:06:45;2.90;;;1.40;;
3815;SDS011;1923;48.154;11.536;2023-08-31T15:09:13;2.20;;;1.40;;
3815;SDS011;1923;48.154;11.536;2023-08-31T15:11:42;5.70;;;1.47;;
3815;SDS011;1923;48.154;11.536;2023-08-31T15:14:11;5.23;;;1.90;;
3815;SDS011;1923;48.154;11.536;2023-08-31T15:16:39;2.97;;;1.87;;
3815;SDS011;1923;48.154;11.536;2023-08-31T15:19:07;2.93;;;1.77;;